createdAt,value
2022-09-22T00:00:22.992Z,59.25
2022-09-22T00:01:33.249Z,59.29
2022-09-22T00:02:36.239Z,59.45
2022-09-22T00:03:46.206Z,59.26
2022-09-22T00:04:49.100Z,59.61
2022-09-22T00:06:09.253Z,59.23
2022-09-22T00:07:12.400Z,59.54
2022-09-22T00:08:15.224Z,59.52
2022-09-22T00:09:21.546Z,59.14
2022-09-22T00:10:24.398Z,59.52
2022-09-22T00:11:30.764Z,59.50
2022-09-22T00:12:34.158Z,59.63
2022-09-22T00:13:37.153Z,59.64
2022-09-22T00:14:40.037Z,59.75
2022-09-22T00:15:46.474Z,59.49
2022-09-22T00:16:56.076Z,59.93
2022-09-22T00:17:59.143Z,59.56
2022-09-22T00:19:02.377Z,59.65
2022-09-22T00:20:06.702Z,60.10
2022-09-22T00:21:17.157Z,59.88
2022-09-22T00:22:20.220Z,59.95
2022-09-22T00:23:27.173Z,59.86
2022-09-22T00:24:31.256Z,59.98
2022-09-22T00:25:34.880Z,59.97
2022-09-22T00:26:39.292Z,60.14
2022-09-22T00:27:42.182Z,59.97
2022-09-22T00:28:47.447Z,60.04
2022-09-22T00:29:51.644Z,60.45
2022-09-22T00:30:54.830Z,60.25
2022-09-22T00:31:59.615Z,60.53
2022-09-22T00:33:05.276Z,60.53
2022-09-22T00:34:13.839Z,60.50
2022-09-22T00:35:16.819Z,60.52
2022-09-22T00:36:22.744Z,61.08
2022-09-22T00:37:25.730Z,61.04
2022-09-22T00:38:29.403Z,60.99
2022-09-22T00:39:32.409Z,61.00
2022-09-22T00:40:37.426Z,61.31
2022-09-22T00:41:44.949Z,61.28
2022-09-22T00:42:49.658Z,61.35
2022-09-22T00:44:21.160Z,61.06
2022-09-22T00:45:24.516Z,60.95
2022-09-22T00:46:28.838Z,60.66
2022-09-22T00:47:43.404Z,60.71
2022-09-22T00:48:57.820Z,60.74
2022-09-22T00:50:22.159Z,60.90
2022-09-22T00:51:29.527Z,61.06
2022-09-22T00:52:40.756Z,60.82
2022-09-22T00:53:44.878Z,61.41
2022-09-22T00:54:52.834Z,61.71
2022-09-22T00:56:14.299Z,61.64
2022-09-22T00:57:27.111Z,61.58
2022-09-22T00:58:42.389Z,61.38
2022-09-22T00:59:50.584Z,61.67
2022-09-22T01:00:53.785Z,61.25
2022-09-22T01:01:56.758Z,61.44
2022-09-22T01:03:03.606Z,61.07
2022-09-22T01:04:07.813Z,60.90
2022-09-22T01:05:11.014Z,61.12
2022-09-22T01:06:28.108Z,60.98
2022-09-22T01:07:31.830Z,60.80
2022-09-22T01:08:37.596Z,61.02
2022-09-22T01:09:40.636Z,60.56
2022-09-22T01:10:44.688Z,60.39
2022-09-22T01:11:47.908Z,60.36
2022-09-22T01:13:39.383Z,60.54
2022-09-22T01:15:12.423Z,60.33
2022-09-22T01:17:09.503Z,60.56
2022-09-22T01:19:31.739Z,60.27
2022-09-22T01:21:33.804Z,60.37
2022-09-22T01:23:00.577Z,60.46
2022-09-22T01:24:22.658Z,60.61
2022-09-22T01:25:55.764Z,60.27
2022-09-22T01:27:28.374Z,60.51
2022-09-22T01:29:11.249Z,60.54
2022-09-22T01:30:22.989Z,60.75
2022-09-22T01:32:18.317Z,60.74
2022-09-22T01:33:45.794Z,60.21
2022-09-22T01:35:27.852Z,60.55
2022-09-22T01:36:52.656Z,60.72
2022-09-22T01:38:23.110Z,60.46
2022-09-22T01:39:45.725Z,60.57
2022-09-22T01:41:09.687Z,60.63
2022-09-22T01:42:29.620Z,61.06
2022-09-22T01:43:47.967Z,60.79
2022-09-22T01:45:08.790Z,60.94
2022-09-22T01:46:25.821Z,60.97
2022-09-22T01:47:45.061Z,60.84
2022-09-22T01:48:52.320Z,60.64
2022-09-22T01:50:03.100Z,60.35
2022-09-22T01:51:12.321Z,60.76
2022-09-22T01:52:27.062Z,60.79
2022-09-22T01:53:52.373Z,60.77
2022-09-22T01:55:06.915Z,61.06
2022-09-22T01:56:13.043Z,60.60
2022-09-22T01:57:47.238Z,60.83
2022-09-22T01:58:57.923Z,60.88
2022-09-22T02:00:05.867Z,60.72
2022-09-22T02:01:19.697Z,60.64
2022-09-22T02:02:34.151Z,60.71
2022-09-22T02:04:29.343Z,60.37
2022-09-22T02:05:50.387Z,60.40
2022-09-22T02:06:58.911Z,60.35
2022-09-22T02:08:10.080Z,60.03
2022-09-22T02:09:18.900Z,59.99
2022-09-22T02:10:32.210Z,59.97
2022-09-22T02:11:35.614Z,59.93
2022-09-22T02:12:39.538Z,59.91
2022-09-22T02:13:44.202Z,60.06
2022-09-22T02:14:47.631Z,60.05
2022-09-22T02:16:02.823Z,59.93
2022-09-22T02:17:05.751Z,59.91
2022-09-22T02:18:20.031Z,60.21
2022-09-22T02:19:50.628Z,60.39
2022-09-22T02:20:53.699Z,60.55
2022-09-22T02:21:56.978Z,60.54
2022-09-22T02:22:59.786Z,60.85
2022-09-22T02:24:02.805Z,60.60
2022-09-22T02:25:06.694Z,60.66
2022-09-22T02:26:10.876Z,60.84
2022-09-22T02:27:35.532Z,60.94
2022-09-22T02:28:41.441Z,60.92
2022-09-22T02:29:55.029Z,60.79
2022-09-22T02:31:19.041Z,60.69
2022-09-22T02:32:24.038Z,61.00
2022-09-22T02:33:28.435Z,60.52
2022-09-22T02:34:31.996Z,60.65
2022-09-22T02:35:39.301Z,60.79
2022-09-22T02:37:03.491Z,60.89
2022-09-22T02:38:23.786Z,60.59
2022-09-22T02:40:07.286Z,60.79
2022-09-22T02:41:40.733Z,61.00
2022-09-22T02:42:56.434Z,61.28
2022-09-22T02:44:05.728Z,61.27
2022-09-22T02:45:29.608Z,60.99
2022-09-22T02:46:48.892Z,61.21
2022-09-22T02:47:53.331Z,61.01
2022-09-22T02:49:05.064Z,60.87
2022-09-22T02:50:12.015Z,61.32
2022-09-22T02:51:16.395Z,61.22
2022-09-22T02:52:23.321Z,61.27
2022-09-22T02:53:26.179Z,61.42
2022-09-22T02:54:29.297Z,60.91
2022-09-22T02:55:32.348Z,60.86
2022-09-22T02:56:35.745Z,61.04
2022-09-22T02:57:39.080Z,60.59
2022-09-22T02:58:41.978Z,60.55
2022-09-22T02:59:44.836Z,60.84
2022-09-22T03:00:47.759Z,60.92
2022-09-22T03:01:50.646Z,60.89
2022-09-22T03:02:53.713Z,60.80
2022-09-22T03:03:56.585Z,61.04
2022-09-22T03:04:59.596Z,60.89
2022-09-22T03:06:02.639Z,61.00
2022-09-22T03:07:07.063Z,60.96
2022-09-22T03:08:10.021Z,60.67
2022-09-22T03:09:13.100Z,60.92
2022-09-22T03:10:16.323Z,60.78
2022-09-22T03:11:19.224Z,60.81
2022-09-22T03:12:22.149Z,60.80
2022-09-22T03:13:25.004Z,60.35
2022-09-22T03:14:27.953Z,60.68
2022-09-22T03:15:31.266Z,60.94
2022-09-22T03:16:34.867Z,60.36
2022-09-22T03:17:38.437Z,60.60
2022-09-22T03:18:41.253Z,60.65
2022-09-22T03:19:44.148Z,60.65
2022-09-22T03:20:47.184Z,60.46
2022-09-22T03:21:50.261Z,60.54
2022-09-22T03:22:53.267Z,60.44
2022-09-22T03:23:56.135Z,60.47
2022-09-22T03:24:59.465Z,60.23
2022-09-22T03:26:02.581Z,60.36
2022-09-22T03:27:05.597Z,60.50
2022-09-22T03:28:08.583Z,60.26
2022-09-22T03:29:11.549Z,60.23
2022-09-22T03:30:15.064Z,60.53
2022-09-22T03:31:17.882Z,60.46
2022-09-22T03:32:22.348Z,60.53
2022-09-22T03:33:25.588Z,60.30
2022-09-22T03:34:28.784Z,60.73
2022-09-22T03:35:31.756Z,60.35
2022-09-22T03:36:35.196Z,60.40
2022-09-22T03:37:38.109Z,60.43
2022-09-22T03:38:41.157Z,60.34
2022-09-22T03:39:44.273Z,60.12
2022-09-22T03:40:52.403Z,60.00
2022-09-22T03:41:55.477Z,60.36
2022-09-22T03:42:58.516Z,60.32
2022-09-22T03:44:01.782Z,59.93
2022-09-22T03:45:05.231Z,60.07
2022-09-22T03:46:08.174Z,60.06
2022-09-22T03:47:11.201Z,60.03
2022-09-22T03:48:14.259Z,60.10
2022-09-22T03:49:17.299Z,60.01
2022-09-22T03:50:21.130Z,59.79
2022-09-22T03:51:24.176Z,60.14
2022-09-22T03:52:27.413Z,60.01
2022-09-22T03:53:30.302Z,59.90
2022-09-22T03:54:33.512Z,60.21
2022-09-22T03:55:37.253Z,60.16
2022-09-22T03:56:40.163Z,60.21
2022-09-22T03:57:43.876Z,60.38
2022-09-22T03:58:46.699Z,60.41
2022-09-22T03:59:49.870Z,60.42
2022-09-22T04:00:52.736Z,60.45
2022-09-22T04:01:58.238Z,60.40
2022-09-22T04:03:01.422Z,60.26
2022-09-22T04:04:04.767Z,60.55
2022-09-22T04:05:08.372Z,60.32
2022-09-22T04:06:11.727Z,60.09
2022-09-22T04:07:14.627Z,60.32
2022-09-22T04:08:18.138Z,60.30
2022-09-22T04:09:21.122Z,60.47
2022-09-22T04:10:23.935Z,60.27
2022-09-22T04:11:27.457Z,60.53
2022-09-22T04:12:30.609Z,60.31
2022-09-22T04:13:34.338Z,60.13
2022-09-22T04:14:37.375Z,60.25
2022-09-22T04:15:40.675Z,60.35
2022-09-22T04:16:43.883Z,60.27
2022-09-22T04:17:47.189Z,60.21
2022-09-22T04:18:50.302Z,60.12
2022-09-22T04:19:55.295Z,60.04
2022-09-22T04:20:59.181Z,60.40
2022-09-22T04:22:04.118Z,60.38
2022-09-22T04:23:07.291Z,60.04
2022-09-22T04:24:11.440Z,60.30
2022-09-22T04:25:14.348Z,60.38
2022-09-22T04:26:17.298Z,60.01
2022-09-22T04:27:21.048Z,60.04
2022-09-22T04:28:24.275Z,60.10
2022-09-22T04:29:27.108Z,59.87
2022-09-22T04:30:30.821Z,59.93
2022-09-22T04:31:33.591Z,59.67
2022-09-22T04:32:36.484Z,59.92
2022-09-22T04:33:39.338Z,60.07
2022-09-22T04:34:43.349Z,60.02
2022-09-22T04:35:48.173Z,59.64
2022-09-22T04:36:51.372Z,60.02
2022-09-22T04:37:55.691Z,60.13
2022-09-22T04:39:03.230Z,59.92
2022-09-22T04:40:06.874Z,59.81
2022-09-22T04:41:09.925Z,59.71
2022-09-22T04:42:12.726Z,59.73
2022-09-22T04:43:16.059Z,59.95
2022-09-22T04:44:19.106Z,59.63
2022-09-22T04:45:22.413Z,59.89
2022-09-22T04:46:26.958Z,59.88
2022-09-22T04:47:30.484Z,59.89
2022-09-22T04:48:33.337Z,59.81
2022-09-22T04:49:36.235Z,59.84
2022-09-22T04:50:39.240Z,59.82
2022-09-22T04:51:42.209Z,59.81
2022-09-22T04:52:52.332Z,59.27
2022-09-22T04:53:55.192Z,59.30
2022-09-22T04:54:58.192Z,59.27
2022-09-22T04:56:01.466Z,59.01
2022-09-22T04:57:04.580Z,59.22
2022-09-22T04:58:07.855Z,59.40
2022-09-22T04:59:11.853Z,59.94
2022-09-22T05:00:15.184Z,59.20
2022-09-22T05:01:18.206Z,58.84
2022-09-22T05:02:21.213Z,58.75
2022-09-22T05:03:24.199Z,58.56
2022-09-22T05:04:27.347Z,58.36
2022-09-22T05:05:30.333Z,58.27
2022-09-22T05:06:33.315Z,58.41
2022-09-22T05:07:36.326Z,58.32
2022-09-22T05:08:39.233Z,58.81
2022-09-22T05:09:42.175Z,58.62
2022-09-22T05:10:46.129Z,57.99
2022-09-22T05:11:49.051Z,58.44
2022-09-22T05:12:53.709Z,58.67
2022-09-22T05:13:57.908Z,58.42
2022-09-22T05:15:00.886Z,58.32
2022-09-22T05:16:05.774Z,58.06
2022-09-22T05:17:08.676Z,58.41
2022-09-22T05:18:11.783Z,58.48
2022-09-22T05:19:14.679Z,58.24
2022-09-22T05:20:19.597Z,57.92
2022-09-22T05:21:22.617Z,58.48
2022-09-22T05:22:25.423Z,58.67
2022-09-22T05:23:28.748Z,58.68
2022-09-22T05:24:32.448Z,58.82
2022-09-22T05:25:35.487Z,58.74
2022-09-22T05:26:38.682Z,58.98
2022-09-22T05:27:54.996Z,58.93
2022-09-22T05:28:58.200Z,58.80
2022-09-22T05:30:01.075Z,58.61
2022-09-22T05:31:04.837Z,59.27
2022-09-22T05:32:07.748Z,58.73
2022-09-22T05:33:10.722Z,58.46
2022-09-22T05:34:13.820Z,58.61
2022-09-22T05:35:23.537Z,58.22
2022-09-22T05:36:26.502Z,57.90
2022-09-22T05:37:29.734Z,57.65
2022-09-22T05:38:32.577Z,57.77
2022-09-22T05:39:35.394Z,57.90
2022-09-22T05:40:38.633Z,57.19
2022-09-22T05:41:41.831Z,57.43
2022-09-22T05:42:46.945Z,57.22
2022-09-22T05:43:49.827Z,57.24
2022-09-22T05:44:52.862Z,56.96
2022-09-22T05:45:56.042Z,57.32
2022-09-22T05:46:59.095Z,57.36
2022-09-22T05:48:02.197Z,56.85
2022-09-22T05:49:04.976Z,56.44
2022-09-22T05:50:10.143Z,56.92
2022-09-22T05:51:12.937Z,56.58
2022-09-22T05:52:15.986Z,56.52
2022-09-22T05:53:19.026Z,56.48
2022-09-22T05:54:23.490Z,56.03
2022-09-22T05:55:26.783Z,55.64
2022-09-22T05:56:32.264Z,54.78
2022-09-22T05:57:35.462Z,54.89
2022-09-22T05:58:38.582Z,54.93
2022-09-22T05:59:41.447Z,55.20
2022-09-22T06:00:44.368Z,55.39
2022-09-22T06:01:47.729Z,54.72
2022-09-22T06:02:50.666Z,55.45
2022-09-22T06:03:54.070Z,55.47
2022-09-22T06:04:57.418Z,55.30
2022-09-22T06:06:00.344Z,55.29
2022-09-22T06:07:03.275Z,54.27
2022-09-22T06:08:07.000Z,54.96
2022-09-22T06:09:09.938Z,54.84
2022-09-22T06:10:12.910Z,54.77
2022-09-22T06:11:15.728Z,54.53
2022-09-22T06:12:19.196Z,54.85
2022-09-22T06:13:22.087Z,55.03
2022-09-22T06:14:25.032Z,54.87
2022-09-22T06:15:28.742Z,54.34
2022-09-22T06:16:31.990Z,53.19
2022-09-22T06:17:34.866Z,53.53
2022-09-22T06:18:37.786Z,53.81
2022-09-22T06:19:41.745Z,54.26
2022-09-22T06:20:45.232Z,53.66
2022-09-22T06:21:48.245Z,53.89
2022-09-22T06:22:51.281Z,53.22
2022-09-22T06:23:54.301Z,52.77
2022-09-22T06:24:57.587Z,52.42
2022-09-22T06:26:00.893Z,52.21
2022-09-22T06:27:03.821Z,52.98
2022-09-22T06:28:09.750Z,52.60
2022-09-22T06:29:12.529Z,51.93
2022-09-22T06:30:15.347Z,52.20
2022-09-22T06:31:18.403Z,51.94
2022-09-22T06:32:21.371Z,52.16
2022-09-22T06:33:24.221Z,52.02
2022-09-22T06:34:27.354Z,51.38
2022-09-22T06:35:36.705Z,52.00
2022-09-22T06:36:45.314Z,51.97
2022-09-22T06:37:56.389Z,51.60
2022-09-22T06:39:00.491Z,51.80
2022-09-22T06:40:04.696Z,51.88
2022-09-22T06:41:08.382Z,51.75
2022-09-22T06:42:11.403Z,51.03
2022-09-22T06:43:22.613Z,50.98
2022-09-22T06:44:25.840Z,50.93
2022-09-22T06:45:30.372Z,50.74
2022-09-22T06:46:34.924Z,49.74
2022-09-22T06:47:38.161Z,49.48
2022-09-22T06:48:41.043Z,48.36
2022-09-22T06:49:44.044Z,48.17
2022-09-22T06:50:53.623Z,47.92
2022-09-22T06:51:56.666Z,48.05
2022-09-22T06:53:07.322Z,47.65
2022-09-22T06:54:10.081Z,47.25
2022-09-22T06:55:12.963Z,47.24
2022-09-22T06:56:15.873Z,47.29
2022-09-22T06:57:19.090Z,47.04
2022-09-22T06:58:22.694Z,47.29
2022-09-22T06:59:25.898Z,46.71
2022-09-22T07:00:33.934Z,46.66
2022-09-22T07:01:37.670Z,46.75
2022-09-22T07:02:40.683Z,46.20
2022-09-22T07:03:44.560Z,46.71
2022-09-22T07:04:48.353Z,46.48
2022-09-22T07:05:58.406Z,46.09
2022-09-22T07:07:04.033Z,46.91
2022-09-22T07:08:07.090Z,46.55
2022-09-22T07:09:10.295Z,47.11
2022-09-22T07:10:13.164Z,47.00
2022-09-22T07:11:23.709Z,47.05
2022-09-22T07:12:26.841Z,46.61
2022-09-22T07:13:32.241Z,46.63
2022-09-22T07:14:35.296Z,47.23
2022-09-22T07:15:38.202Z,46.22
2022-09-22T07:16:41.734Z,46.31
2022-09-22T07:17:44.671Z,46.76
2022-09-22T07:18:51.261Z,46.67
2022-09-22T07:19:56.366Z,46.42
2022-09-22T07:21:22.769Z,46.29
2022-09-22T07:22:26.909Z,46.72
2022-09-22T07:23:29.832Z,46.12
2022-09-22T07:24:32.799Z,46.47
2022-09-22T07:25:35.986Z,46.09
2022-09-22T07:26:40.085Z,45.75
2022-09-22T07:27:43.354Z,45.44
2022-09-22T07:28:50.370Z,43.61
2022-09-22T07:29:54.381Z,43.67
2022-09-22T07:31:08.249Z,43.35
2022-09-22T07:32:11.187Z,42.91
2022-09-22T07:33:14.581Z,42.55
2022-09-22T07:34:18.235Z,41.57
2022-09-22T07:35:21.449Z,41.72
2022-09-22T07:36:26.338Z,41.13
2022-09-22T07:37:33.212Z,41.39
2022-09-22T07:38:40.709Z,40.86
2022-09-22T07:39:45.700Z,40.34
2022-09-22T07:40:53.678Z,40.58
2022-09-22T07:41:56.655Z,40.32
2022-09-22T07:42:59.866Z,39.40
2022-09-22T07:44:23.205Z,39.72
2022-09-22T07:45:26.086Z,40.03
2022-09-22T07:46:29.135Z,39.26
2022-09-22T07:47:50.706Z,38.33
2022-09-22T07:48:53.511Z,38.65
2022-09-22T07:49:56.408Z,38.84
2022-09-22T07:51:00.254Z,39.03
2022-09-22T07:52:03.514Z,38.92
2022-09-22T07:53:06.332Z,37.75
2022-09-22T07:54:09.675Z,36.35
2022-09-22T07:55:12.535Z,33.18
2022-09-22T07:56:18.862Z,32.58
2022-09-22T07:57:21.856Z,31.64
2022-09-22T07:58:25.914Z,30.69
2022-09-22T07:59:28.876Z,28.99
2022-09-22T08:00:33.011Z,28.31
2022-09-22T08:01:39.795Z,27.67
2022-09-22T08:02:44.554Z,25.44
2022-09-22T08:03:48.119Z,25.35
2022-09-22T08:04:51.004Z,24.19
2022-09-22T08:06:10.418Z,24.30
2022-09-22T08:07:15.369Z,23.38
2022-09-22T08:08:18.376Z,23.11
2022-09-22T08:09:21.997Z,22.63
2022-09-22T08:10:26.235Z,22.03
2022-09-22T08:11:29.495Z,21.26
2022-09-22T08:12:32.656Z,20.14
2022-09-22T08:13:36.975Z,19.15
2022-09-22T08:14:39.906Z,18.35
2022-09-22T08:15:42.857Z,17.99
2022-09-22T08:16:46.109Z,18.24
2022-09-22T08:17:50.998Z,18.94
2022-09-22T08:18:58.871Z,19.14
2022-09-22T08:20:03.861Z,20.18
2022-09-22T08:21:07.977Z,20.43
2022-09-22T08:22:11.702Z,20.50
2022-09-22T08:23:14.751Z,20.43
2022-09-22T08:24:23.637Z,19.35
2022-09-22T08:25:26.804Z,18.70
2022-09-22T08:26:29.707Z,17.43
2022-09-22T08:27:34.583Z,17.72
2022-09-22T08:28:37.629Z,16.83
2022-09-22T08:29:40.551Z,16.89
2022-09-22T08:30:49.661Z,16.41
2022-09-22T08:31:54.245Z,16.34
2022-09-22T08:33:00.719Z,16.74
2022-09-22T08:34:06.057Z,17.21
2022-09-22T08:35:09.079Z,17.69
2022-09-22T08:36:12.987Z,17.96
2022-09-22T08:37:15.910Z,18.33
2022-09-22T08:38:18.845Z,19.35
2022-09-22T08:39:22.375Z,20.15
2022-09-22T08:40:25.258Z,20.78
2022-09-22T08:41:38.298Z,21.94
2022-09-22T08:42:43.298Z,21.71
2022-09-22T08:43:54.426Z,23.28
2022-09-22T08:45:26.168Z,23.60
2022-09-22T08:46:44.105Z,23.55
2022-09-22T08:48:14.429Z,24.37
2022-09-22T08:50:06.393Z,24.42
2022-09-22T08:51:39.467Z,25.90
2022-09-22T08:52:55.465Z,27.35
2022-09-22T08:54:03.103Z,27.57
2022-09-22T08:55:19.428Z,28.08
2022-09-22T08:56:33.538Z,28.48
2022-09-22T08:58:27.400Z,29.18
2022-09-22T08:59:55.311Z,26.96
2022-09-22T09:01:25.380Z,27.16
2022-09-22T09:03:14.247Z,25.37
2022-09-22T09:04:42.087Z,25.12
2022-09-22T09:06:09.267Z,24.38
2022-09-22T09:07:41.757Z,25.09
2022-09-22T09:09:14.085Z,26.13
2022-09-22T09:11:07.331Z,26.88
2022-09-22T09:12:36.251Z,25.82
2022-09-22T09:14:04.389Z,24.53
2022-09-22T09:15:13.918Z,24.55
2022-09-22T09:16:38.131Z,23.40
2022-09-22T09:17:46.544Z,22.61
2022-09-22T09:19:06.701Z,23.42
2022-09-22T09:20:45.875Z,23.87
2022-09-22T09:21:55.230Z,23.94
2022-09-22T09:22:59.772Z,25.15
2022-09-22T09:25:43.265Z,27.12
2022-09-22T09:26:49.686Z,27.21
2022-09-22T09:28:07.827Z,28.35
2022-09-22T09:29:22.073Z,27.86
2022-09-22T09:30:25.099Z,27.54
2022-09-22T09:31:53.300Z,27.30
2022-09-22T09:33:01.182Z,27.01
2022-09-22T09:34:14.443Z,27.27
2022-09-22T09:35:26.709Z,25.70
2022-09-22T09:37:27.463Z,26.26
2022-09-22T09:38:40.010Z,23.52
2022-09-22T09:39:44.725Z,24.04
2022-09-22T09:41:21.798Z,23.22
2022-09-22T09:42:33.308Z,20.91
2022-09-22T09:43:37.382Z,20.93
2022-09-22T09:44:40.400Z,19.04
2022-09-22T09:46:09.952Z,19.30
2022-09-22T09:47:32.683Z,18.76
2022-09-22T09:49:11.829Z,16.01
2022-09-22T09:50:16.106Z,15.35
2022-09-22T09:51:20.075Z,14.14
2022-09-22T09:52:27.041Z,14.59
2022-09-22T09:53:42.225Z,14.95
2022-09-22T09:54:48.072Z,15.18
2022-09-22T09:55:51.269Z,15.15
2022-09-22T09:57:16.064Z,16.36
2022-09-22T09:58:37.447Z,17.35
2022-09-22T10:00:32.065Z,18.62
2022-09-22T10:01:35.334Z,19.60
2022-09-22T10:03:02.960Z,20.06
2022-09-22T10:04:05.996Z,20.18
2022-09-22T10:05:37.584Z,20.23
2022-09-22T10:06:41.834Z,21.85
2022-09-22T10:07:48.843Z,23.19
2022-09-22T10:08:53.155Z,23.79
2022-09-22T10:10:16.507Z,24.27
2022-09-22T10:11:32.820Z,24.27
2022-09-22T10:12:35.955Z,24.75
2022-09-22T10:13:41.029Z,25.64
2022-09-22T10:14:54.319Z,26.16
2022-09-22T10:16:22.736Z,26.82
2022-09-22T10:17:31.149Z,26.79
2022-09-22T10:18:41.221Z,27.08
2022-09-22T10:19:44.337Z,27.35
2022-09-22T10:21:01.224Z,24.79
2022-09-22T10:22:28.112Z,21.20
2022-09-22T10:23:34.376Z,22.33
2022-09-22T10:24:37.700Z,21.97
2022-09-22T10:25:40.619Z,22.08
2022-09-22T10:26:57.499Z,22.74
2022-09-22T10:28:01.659Z,22.98
2022-09-22T10:29:12.298Z,22.40
2022-09-22T10:30:22.641Z,23.15
2022-09-22T10:31:25.453Z,23.15
2022-09-22T10:32:28.822Z,23.85
2022-09-22T10:33:33.487Z,24.59
2022-09-22T10:36:12.062Z,27.36
2022-09-22T10:37:25.533Z,29.11
2022-09-22T10:38:29.397Z,29.93
2022-09-22T10:39:38.577Z,30.77
2022-09-22T10:40:46.773Z,31.00
2022-09-22T10:41:50.029Z,31.84
2022-09-22T10:42:57.744Z,32.95
2022-09-22T10:46:23.114Z,34.58
2022-09-22T10:47:36.000Z,35.25
2022-09-22T10:48:54.018Z,36.24
2022-09-22T10:50:24.303Z,36.84
2022-09-22T10:51:55.533Z,36.62
2022-09-22T10:53:32.587Z,37.10
2022-09-22T10:54:58.129Z,37.19
2022-09-22T10:56:37.603Z,37.31
2022-09-22T10:58:15.236Z,37.07
2022-09-22T11:00:18.428Z,37.10
2022-09-22T11:01:36.767Z,37.53
2022-09-22T11:03:16.982Z,37.72
2022-09-22T11:04:34.759Z,37.69
2022-09-22T11:06:51.242Z,38.12
2022-09-22T11:08:29.056Z,38.24
2022-09-22T11:10:45.725Z,36.47
2022-09-22T11:12:19.050Z,36.04
2022-09-22T11:13:54.150Z,35.31
2022-09-22T11:15:20.599Z,34.66
2022-09-22T11:16:35.587Z,30.99
2022-09-22T11:18:05.223Z,29.75
2022-09-22T11:19:33.977Z,30.15
2022-09-22T11:20:45.171Z,30.58
2022-09-22T11:22:27.503Z,31.09
2022-09-22T11:24:31.072Z,31.94
2022-09-22T11:26:04.924Z,32.80
2022-09-22T11:27:25.056Z,33.73
2022-09-22T11:28:58.591Z,34.14
2022-09-22T11:30:20.469Z,35.11
2022-09-22T11:31:47.197Z,35.85
2022-09-22T11:33:39.858Z,36.76
2022-09-22T11:35:09.953Z,38.09
2022-09-22T11:36:48.073Z,38.13
2022-09-22T11:38:13.171Z,39.06
2022-09-22T11:39:25.537Z,39.18
2022-09-22T11:40:53.783Z,39.45
2022-09-22T11:42:21.372Z,40.55
2022-09-22T11:43:59.363Z,40.45
2022-09-22T11:45:19.471Z,41.71
2022-09-22T11:46:44.065Z,42.38
2022-09-22T11:48:07.377Z,42.25
2022-09-22T11:49:42.694Z,41.86
2022-09-22T11:51:09.534Z,41.78
2022-09-22T11:52:43.287Z,41.31
2022-09-22T11:54:08.934Z,40.85
2022-09-22T11:55:51.517Z,41.39
2022-09-22T11:57:01.607Z,39.90
2022-09-22T11:58:20.627Z,40.46
2022-09-22T11:59:49.431Z,40.27
2022-09-22T12:01:13.082Z,40.05
2022-09-22T12:02:49.032Z,39.89
2022-09-22T12:04:27.878Z,39.88
2022-09-22T12:06:03.941Z,39.76
2022-09-22T12:07:28.701Z,39.65
2022-09-22T12:09:04.475Z,38.62
2022-09-22T12:10:26.021Z,38.93
2022-09-22T12:11:31.484Z,38.56
2022-09-22T12:12:35.193Z,38.32
2022-09-22T12:13:46.044Z,39.13
2022-09-22T12:14:56.684Z,39.40
2022-09-22T12:16:21.350Z,38.56
2022-09-22T12:18:10.919Z,38.81
2022-09-22T12:19:40.444Z,38.47
2022-09-22T12:21:03.023Z,38.54
2022-09-22T12:22:44.806Z,38.60
2022-09-22T12:23:52.191Z,37.88
2022-09-22T12:24:55.205Z,37.54
2022-09-22T12:26:08.166Z,37.37
2022-09-22T12:27:21.125Z,38.59
2022-09-22T12:28:30.468Z,37.85
2022-09-22T12:29:33.789Z,36.08
2022-09-22T12:30:36.615Z,36.94
2022-09-22T12:31:41.814Z,36.74
2022-09-22T12:32:45.882Z,36.91
2022-09-22T12:33:53.804Z,36.75
2022-09-22T12:34:59.171Z,36.96
2022-09-22T12:36:03.908Z,36.07
2022-09-22T12:37:11.380Z,36.71
2022-09-22T12:38:14.230Z,35.59
2022-09-22T12:39:32.101Z,36.29
2022-09-22T12:40:38.123Z,35.66
2022-09-22T12:42:02.733Z,35.04
2022-09-22T12:43:06.508Z,36.01
2022-09-22T12:44:26.763Z,35.65
2022-09-22T12:45:38.167Z,36.18
2022-09-22T12:46:43.541Z,35.83
2022-09-22T12:47:53.320Z,35.32
2022-09-22T12:48:56.434Z,35.76
2022-09-22T12:50:06.996Z,35.86
2022-09-22T12:51:24.765Z,36.22
2022-09-22T12:52:54.413Z,36.32
2022-09-22T12:54:22.040Z,34.40
2022-09-22T12:55:30.512Z,34.41
2022-09-22T12:56:53.360Z,35.35
2022-09-22T12:58:02.552Z,35.10
2022-09-22T12:59:40.134Z,35.66
2022-09-22T13:00:43.370Z,36.34
2022-09-22T13:01:46.729Z,36.39
2022-09-22T13:02:50.420Z,35.72
2022-09-22T13:04:04.301Z,35.61
2022-09-22T13:05:27.157Z,35.25
2022-09-22T13:06:30.061Z,34.93
2022-09-22T13:07:36.424Z,35.56
2022-09-22T13:08:39.224Z,35.74
2022-09-22T13:09:42.149Z,35.21
2022-09-22T13:11:08.650Z,35.75
2022-09-22T13:12:12.073Z,35.55
2022-09-22T13:13:43.776Z,36.06
2022-09-22T13:15:07.668Z,35.93
2022-09-22T13:16:16.817Z,36.52
2022-09-22T13:17:50.406Z,36.80
2022-09-22T13:18:54.109Z,36.85
2022-09-22T13:19:57.047Z,36.05
2022-09-22T13:21:03.468Z,35.52
2022-09-22T13:22:17.981Z,36.55
2022-09-22T13:23:21.082Z,36.85
2022-09-22T13:24:27.510Z,36.61
2022-09-22T13:25:31.397Z,37.01
2022-09-22T13:26:41.923Z,37.35
2022-09-22T13:27:45.584Z,37.81
2022-09-22T13:29:21.676Z,38.58
2022-09-22T13:30:24.649Z,38.37
2022-09-22T13:31:27.723Z,38.16
2022-09-22T13:32:30.617Z,38.49
2022-09-22T13:33:35.924Z,38.32
2022-09-22T13:34:39.126Z,37.85
2022-09-22T13:35:44.255Z,37.35
2022-09-22T13:36:48.704Z,37.29
2022-09-22T13:37:54.910Z,37.58
2022-09-22T13:38:59.135Z,38.12
2022-09-22T13:40:03.250Z,38.36
2022-09-22T13:41:29.687Z,38.82
2022-09-22T13:42:33.601Z,38.08
2022-09-22T13:43:40.327Z,38.53
2022-09-22T13:44:48.348Z,38.18
2022-09-22T13:45:52.336Z,38.42
2022-09-22T13:46:57.440Z,38.68
2022-09-22T13:48:10.318Z,38.68
2022-09-22T13:49:27.204Z,38.57
2022-09-22T13:50:30.241Z,39.20
2022-09-22T13:51:33.111Z,39.01
2022-09-22T13:52:38.650Z,38.87
2022-09-22T13:53:51.484Z,38.89
2022-09-22T13:55:14.933Z,37.98
2022-09-22T13:56:22.016Z,38.07
2022-09-22T13:57:31.622Z,38.53
2022-09-22T13:58:41.473Z,37.99
2022-09-22T13:59:44.581Z,37.95
2022-09-22T14:01:12.607Z,37.93
2022-09-22T14:02:28.206Z,38.15
2022-09-22T14:03:38.413Z,38.05
2022-09-22T14:04:53.481Z,37.54
2022-09-22T14:05:57.596Z,37.98
2022-09-22T14:07:08.542Z,37.78
2022-09-22T14:08:20.121Z,37.75
2022-09-22T14:09:25.924Z,38.15
2022-09-22T14:10:28.991Z,38.40
2022-09-22T14:11:33.232Z,38.22
2022-09-22T14:12:36.513Z,37.67
2022-09-22T14:13:52.753Z,37.97
2022-09-22T14:14:56.433Z,38.00
2022-09-22T14:16:25.593Z,38.29
2022-09-22T14:17:30.540Z,38.40
2022-09-22T14:18:46.092Z,38.16
2022-09-22T14:20:08.828Z,38.73
2022-09-22T14:21:12.375Z,38.20
2022-09-22T14:22:27.125Z,39.09
2022-09-22T14:23:32.592Z,39.03
2022-09-22T14:24:37.807Z,39.67
2022-09-22T14:25:41.216Z,39.23
2022-09-22T14:27:03.036Z,39.73
2022-09-22T14:28:16.670Z,38.80
2022-09-22T14:29:31.915Z,39.39
2022-09-22T14:30:35.199Z,40.09
2022-09-22T14:31:46.014Z,40.40
2022-09-22T14:32:57.534Z,40.08
2022-09-22T14:34:03.168Z,39.76
2022-09-22T14:35:16.706Z,40.08
2022-09-22T14:36:24.705Z,40.11
2022-09-22T14:37:32.355Z,40.24
2022-09-22T14:38:43.113Z,40.21
2022-09-22T14:39:50.839Z,40.31
2022-09-22T14:40:58.829Z,40.75
2022-09-22T14:42:21.328Z,40.64
2022-09-22T14:43:33.369Z,40.71
2022-09-22T14:44:43.257Z,40.33
2022-09-22T14:46:07.393Z,40.09
2022-09-22T14:47:19.532Z,39.70
2022-09-22T14:48:33.947Z,40.07
2022-09-22T14:49:44.574Z,40.26
2022-09-22T14:51:08.324Z,39.80
2022-09-22T14:52:30.472Z,40.22
2022-09-22T14:53:56.939Z,40.92
2022-09-22T14:55:35.969Z,40.27
2022-09-22T14:56:43.980Z,40.36
2022-09-22T14:57:49.774Z,40.39
2022-09-22T14:58:59.115Z,40.52
2022-09-22T15:00:21.483Z,40.09
2022-09-22T15:01:51.063Z,40.11
2022-09-22T15:02:55.688Z,39.76
2022-09-22T15:04:10.966Z,40.37
2022-09-22T15:05:34.305Z,39.97
2022-09-22T15:06:39.868Z,39.88
2022-09-22T15:07:48.575Z,40.38
2022-09-22T15:08:52.885Z,40.11
2022-09-22T15:10:05.170Z,39.99
2022-09-22T15:11:08.088Z,40.24
2022-09-22T15:12:40.893Z,39.85
2022-09-22T15:13:47.005Z,40.60
2022-09-22T15:14:58.472Z,40.45
2022-09-22T15:16:01.777Z,40.78
2022-09-22T15:17:51.871Z,41.62
2022-09-22T15:18:55.393Z,41.55